Terminal Aerodrome Forecast
Issued by NWS

Home | Current Version | Previous Version | Text Only | Print | Product List | Glossary On
Versions: 1 2 3 4 5 6 7 8 9 10 11 12 13 14 15 16
500
FTUS43 KILX 121559 AAA
TAFCMI
TAF AMD
KCMI 121559Z 1216/1312 28012G18KT P6SM OVC012
      TEMPO 1216/1217 OVC009
     FM121700 30015G24KT P6SM VCSH OVC015
      TEMPO 1217/1219 5SM -SN BR OVC009
     FM122200 31020G28KT P6SM SCT025=

USA.gov is the U.S. government's official web portal to all federal, state and local government web resources and services.